Fort Myers Beach, Florida
Current Conditions -  °F | °C
As of 2:53 PM on Thursday 30 Oct 2014 (Local Time) from KFMY Reporting Station
Broken Clouds Broken Clouds  
Wind Chill: 83°   Ceiling: 6500
Heat Index: 85°   Visibility: 10mi
Dew Point: 66°   Wind: 7mph
Humidity: 56%   Direction: 190°S
Pressure: 29.89"   Gusts: NA
Location:  26.45°N, 81.94°W
Report Text: KFMY 301853Z 19006KT 10SM BKN065 28/19 A2989 RMK AO2 SLP123 T02830189
Loading
Personal Weather Stations






























Interactive Weather Map
Tropical Storm Tracking
New forecast layout! Learn more

10-Day Weather Forecast

Advertisements
Track Severe Weather on mobile